createdAt,value
2022-10-04T00:01:22.687Z,55.80
2022-10-04T00:03:30.432Z,55.80
2022-10-04T00:05:32.390Z,55.70
2022-10-04T00:07:57.818Z,55.80
2022-10-04T00:10:15.972Z,55.90
2022-10-04T00:12:40.100Z,55.80
2022-10-04T00:14:43.832Z,55.80
2022-10-04T00:16:45.817Z,55.80
2022-10-04T00:18:47.531Z,55.80
2022-10-04T00:20:53.153Z,55.90
2022-10-04T00:23:33.859Z,55.90
2022-10-04T00:25:36.597Z,55.80
2022-10-04T00:27:38.700Z,56.40
2022-10-04T00:29:44.167Z,55.80
2022-10-04T00:32:08.299Z,55.80
2022-10-04T00:34:09.855Z,55.80
2022-10-04T00:36:26.432Z,55.80
2022-10-04T00:38:29.231Z,55.80
2022-10-04T00:40:38.579Z,55.80
2022-10-04T00:42:48.064Z,55.90
2022-10-04T00:44:59.071Z,55.80
2022-10-04T00:47:05.064Z,55.80
2022-10-04T00:49:09.396Z,55.70
2022-10-04T00:51:13.032Z,55.70
2022-10-04T00:53:20.031Z,55.80
2022-10-04T00:55:39.437Z,55.90
2022-10-04T00:57:45.447Z,55.90
2022-10-04T00:59:51.449Z,55.90
2022-10-04T01:02:02.738Z,55.90
2022-10-04T01:04:14.815Z,55.80
2022-10-04T01:06:17.057Z,55.80
2022-10-04T01:08:35.150Z,55.80
2022-10-04T01:10:58.696Z,55.80
2022-10-04T01:13:18.867Z,55.80
2022-10-04T01:15:26.278Z,55.80
2022-10-04T01:17:27.949Z,55.80
2022-10-04T01:19:32.204Z,55.90
2022-10-04T01:21:38.255Z,55.80
2022-10-04T01:24:08.304Z,55.70
2022-10-04T01:26:32.347Z,55.80
2022-10-04T01:28:35.121Z,55.80
2022-10-04T01:30:36.880Z,55.80
2022-10-04T01:32:39.598Z,55.80
2022-10-04T01:34:41.247Z,55.80
2022-10-04T01:36:44.141Z,55.70
2022-10-04T01:38:46.301Z,55.80
2022-10-04T01:40:54.227Z,55.80
2022-10-04T01:43:01.982Z,55.80
2022-10-04T01:45:30.169Z,55.70
2022-10-04T01:47:43.606Z,55.70
2022-10-04T01:49:46.753Z,55.80
2022-10-04T01:51:54.375Z,55.70
2022-10-04T01:53:58.952Z,55.80
2022-10-04T01:56:23.261Z,55.70
2022-10-04T01:58:33.676Z,55.60
2022-10-04T02:00:38.832Z,55.60
2022-10-04T02:03:04.031Z,55.60
2022-10-04T02:05:10.277Z,55.60
2022-10-04T02:07:14.796Z,55.60
2022-10-04T02:09:22.636Z,55.60
2022-10-04T02:11:28.005Z,55.60
2022-10-04T02:13:35.741Z,55.60
2022-10-04T02:15:41.428Z,55.50
2022-10-04T02:17:44.347Z,55.50
2022-10-04T02:19:47.035Z,55.50
2022-10-04T02:21:49.717Z,55.50
2022-10-04T02:23:53.073Z,55.60
2022-10-04T02:25:55.012Z,55.60
2022-10-04T02:27:56.972Z,55.60
2022-10-04T02:30:07.930Z,55.60
2022-10-04T02:32:29.509Z,55.60
2022-10-04T02:34:31.312Z,55.50
2022-10-04T02:36:34.286Z,55.60
2022-10-04T02:38:57.295Z,55.50
2022-10-04T02:41:20.456Z,55.50
2022-10-04T02:43:41.928Z,55.50
2022-10-04T02:45:55.708Z,55.40
2022-10-04T02:48:31.680Z,55.40
2022-10-04T02:50:35.896Z,55.60
2022-10-04T02:52:44.780Z,55.60
2022-10-04T02:54:52.674Z,55.50
2022-10-04T02:56:58.457Z,55.50
2022-10-04T02:59:05.617Z,55.40
2022-10-04T03:01:07.465Z,55.50
2022-10-04T03:03:19.626Z,55.40
2022-10-04T03:05:21.752Z,55.40
2022-10-04T03:07:24.031Z,55.50
2022-10-04T03:09:29.877Z,55.40
2022-10-04T03:11:40.489Z,55.50
2022-10-04T03:13:47.101Z,55.50
2022-10-04T03:15:50.272Z,55.50
2022-10-04T03:17:52.035Z,55.40
2022-10-04T03:19:53.695Z,55.30
2022-10-04T03:22:00.696Z,55.40
2022-10-04T03:24:06.138Z,55.40
2022-10-04T03:26:27.242Z,55.40
2022-10-04T03:28:29.458Z,55.30
2022-10-04T03:30:32.270Z,55.30
2022-10-04T03:32:34.076Z,55.40
2022-10-04T03:34:41.548Z,55.40
2022-10-04T03:36:45.370Z,55.30
2022-10-04T03:38:48.770Z,55.30
2022-10-04T03:41:11.429Z,55.30
2022-10-04T03:43:14.689Z,55.30
2022-10-04T03:45:18.814Z,55.20
2022-10-04T03:47:44.007Z,55.20
2022-10-04T03:49:50.669Z,55.20
2022-10-04T03:51:53.360Z,55.30
2022-10-04T03:53:57.768Z,55.20
2022-10-04T03:56:04.044Z,55.20
2022-10-04T03:58:09.249Z,55.20
2022-10-04T04:00:16.960Z,55.20
2022-10-04T04:02:33.900Z,55.20
2022-10-04T04:04:43.608Z,55.20
2022-10-04T04:07:07.218Z,55.20
2022-10-04T04:09:16.657Z,55.30
2022-10-04T04:11:28.721Z,55.30
2022-10-04T04:13:39.130Z,55.20
2022-10-04T04:15:43.250Z,55.20
2022-10-04T04:17:48.429Z,55.20
2022-10-04T04:19:50.063Z,55.40
2022-10-04T04:21:55.126Z,55.30
2022-10-04T04:24:01.416Z,55.10
2022-10-04T04:26:23.452Z,55.10
2022-10-04T04:28:41.966Z,55.20
2022-10-04T04:30:50.213Z,55.30
2022-10-04T04:32:56.582Z,55.30
2022-10-04T04:35:10.193Z,55.00
2022-10-04T04:37:11.838Z,55.10
2022-10-04T04:39:37.258Z,55.00
2022-10-04T04:41:40.740Z,55.10
2022-10-04T04:43:45.513Z,55.20
2022-10-04T04:45:58.385Z,54.80
2022-10-04T04:48:15.655Z,54.00
2022-10-04T04:50:20.814Z,54.40
2022-10-04T04:52:27.508Z,54.70
2022-10-04T04:54:29.228Z,54.80
2022-10-04T04:56:31.328Z,55.00
2022-10-04T04:58:36.816Z,55.00
2022-10-04T05:00:39.649Z,55.20
2022-10-04T05:02:56.158Z,55.20
2022-10-04T05:05:22.368Z,55.20
2022-10-04T05:07:24.581Z,55.40
2022-10-04T05:09:29.214Z,55.20
2022-10-04T05:11:37.474Z,55.50
2022-10-04T05:13:48.804Z,55.10
2022-10-04T05:15:54.775Z,54.90
2022-10-04T05:17:56.466Z,55.00
2022-10-04T05:20:00.450Z,55.40
2022-10-04T05:22:10.139Z,55.10
2022-10-04T05:24:17.599Z,55.10
2022-10-04T05:26:27.717Z,55.20
2022-10-04T05:28:30.090Z,55.30
2022-10-04T05:30:43.513Z,55.00
2022-10-04T05:33:01.374Z,55.10
2022-10-04T05:35:13.579Z,55.00
2022-10-04T05:37:53.292Z,55.10
2022-10-04T05:40:05.980Z,54.50
2022-10-04T05:42:26.903Z,54.40
2022-10-04T05:44:36.397Z,54.40
2022-10-04T05:46:43.297Z,54.40
2022-10-04T05:48:48.977Z,54.40
2022-10-04T05:50:50.758Z,54.40
2022-10-04T05:52:52.749Z,54.60
2022-10-04T05:55:16.088Z,54.90
2022-10-04T05:57:33.521Z,54.20
2022-10-04T05:59:49.869Z,54.10
2022-10-04T06:02:03.490Z,54.10
2022-10-04T06:04:17.564Z,54.10
2022-10-04T06:06:46.964Z,54.00
2022-10-04T06:09:10.523Z,54.00
2022-10-04T06:11:22.482Z,54.00
2022-10-04T06:13:59.432Z,54.00
2022-10-04T06:16:34.924Z,53.90
2022-10-04T06:19:14.263Z,53.90
2022-10-04T06:22:02.711Z,53.90
2022-10-04T06:24:21.962Z,53.70
2022-10-04T06:26:29.264Z,53.70
2022-10-04T06:28:36.589Z,53.60
2022-10-04T06:31:01.597Z,53.60
2022-10-04T06:33:36.675Z,53.60
2022-10-04T06:36:10.231Z,53.60
2022-10-04T06:38:20.700Z,53.60
2022-10-04T06:41:01.112Z,53.50
2022-10-04T06:43:17.519Z,53.50
2022-10-04T06:45:39.815Z,53.30
2022-10-04T06:48:15.690Z,53.30
2022-10-04T06:50:42.675Z,53.30
2022-10-04T06:53:15.469Z,53.30
2022-10-04T06:55:35.559Z,53.20
2022-10-04T06:57:58.281Z,53.20
2022-10-04T07:00:14.702Z,53.10
2022-10-04T07:02:28.937Z,53.10
2022-10-04T07:04:55.823Z,53.10
2022-10-04T07:07:46.083Z,53.00
2022-10-04T07:09:49.244Z,53.00
2022-10-04T07:12:01.136Z,53.10
2022-10-04T07:14:02.877Z,52.90
2022-10-04T07:16:17.279Z,52.90
2022-10-04T07:18:32.727Z,52.90
2022-10-04T07:20:36.397Z,52.90
2022-10-04T07:22:51.415Z,52.90
2022-10-04T07:25:22.783Z,52.90
2022-10-04T07:27:28.314Z,52.90
2022-10-04T07:29:42.388Z,52.90
2022-10-04T07:31:46.201Z,52.80
2022-10-04T07:33:58.246Z,52.80
2022-10-04T07:36:24.140Z,52.80
2022-10-04T07:38:29.529Z,52.70
2022-10-04T07:40:36.694Z,52.60
2022-10-04T07:42:51.819Z,52.60
2022-10-04T07:45:12.042Z,52.70
2022-10-04T07:47:20.242Z,52.60
2022-10-04T07:49:23.180Z,52.60
2022-10-04T07:51:41.506Z,52.60
2022-10-04T07:53:53.392Z,52.60
2022-10-04T07:56:08.032Z,52.60
2022-10-04T07:58:25.443Z,52.60
2022-10-04T08:00:49.442Z,52.50
2022-10-04T08:03:08.966Z,52.40
2022-10-04T08:05:26.311Z,52.40
2022-10-04T08:07:49.783Z,52.40
2022-10-04T08:10:00.705Z,52.40
2022-10-04T08:12:24.880Z,52.30
2022-10-04T08:14:44.480Z,52.30
2022-10-04T08:17:17.232Z,52.30
2022-10-04T08:19:36.144Z,52.30
2022-10-04T08:21:54.562Z,52.30
2022-10-04T08:24:40.684Z,52.30
2022-10-04T08:27:10.293Z,52.30
2022-10-04T08:29:43.928Z,52.30
2022-10-04T08:32:10.301Z,52.20
2022-10-04T08:34:18.113Z,52.20
2022-10-04T08:36:41.818Z,52.20
2022-10-04T08:38:49.892Z,52.10
2022-10-04T08:41:10.071Z,52.10
2022-10-04T08:43:34.025Z,52.20
2022-10-04T08:46:03.957Z,52.10
2022-10-04T08:48:32.858Z,52.10
2022-10-04T08:51:01.786Z,52.10
2022-10-04T08:53:22.604Z,52.00
2022-10-04T08:55:32.164Z,52.10
2022-10-04T08:57:52.245Z,52.10
2022-10-04T09:00:13.685Z,52.00
2022-10-04T09:02:27.144Z,52.00
2022-10-04T09:04:56.829Z,52.00
2022-10-04T09:07:43.169Z,52.00
2022-10-04T09:10:03.414Z,51.90
2022-10-04T09:12:20.062Z,51.90
2022-10-04T09:14:50.030Z,51.80
2022-10-04T09:17:19.766Z,52.40
2022-10-04T09:19:23.551Z,51.70
2022-10-04T09:21:56.931Z,51.60
2022-10-04T09:24:35.983Z,51.50
2022-10-04T09:26:47.421Z,51.50
2022-10-04T09:28:52.148Z,51.40
2022-10-04T09:30:56.776Z,51.30
2022-10-04T09:33:19.275Z,51.30
2022-10-04T09:35:57.048Z,51.20
2022-10-04T09:38:30.630Z,51.30
2022-10-04T09:40:47.289Z,51.20
2022-10-04T09:43:23.584Z,51.10
2022-10-04T09:45:37.717Z,51.20
2022-10-04T09:47:51.693Z,51.00
2022-10-04T09:50:26.546Z,51.10
2022-10-04T09:52:57.987Z,51.10
2022-10-04T09:55:18.442Z,51.00
2022-10-04T09:57:41.251Z,51.00
2022-10-04T10:00:02.184Z,50.90
2022-10-04T10:02:16.070Z,50.90
2022-10-04T10:04:48.490Z,50.90
2022-10-04T10:07:24.026Z,50.90
2022-10-04T10:09:51.359Z,50.90
2022-10-04T10:12:38.012Z,50.90
2022-10-04T10:15:00.987Z,50.90
2022-10-04T10:17:37.185Z,50.90
2022-10-04T10:20:09.973Z,51.00
2022-10-04T10:22:28.868Z,51.40
2022-10-04T10:24:56.187Z,50.80
2022-10-04T10:27:09.778Z,50.90
2022-10-04T10:29:49.116Z,51.10
2022-10-04T10:32:33.360Z,50.90
2022-10-04T10:34:59.578Z,50.90
2022-10-04T10:37:40.829Z,50.80
2022-10-04T10:39:59.984Z,50.70
2022-10-04T10:42:17.812Z,50.70
2022-10-04T10:44:35.463Z,50.70
2022-10-04T10:46:57.421Z,50.70
2022-10-04T10:49:37.696Z,51.00
2022-10-04T10:52:04.864Z,50.90
2022-10-04T10:54:41.398Z,50.70
2022-10-04T10:57:08.647Z,50.50
2022-10-04T10:59:43.416Z,50.60
2022-10-04T11:01:57.091Z,50.60
2022-10-04T11:04:17.339Z,50.70
2022-10-04T11:06:54.305Z,50.60
2022-10-04T11:09:28.204Z,50.60
2022-10-04T11:12:01.112Z,50.60
2022-10-04T11:14:22.770Z,50.50
2022-10-04T11:16:49.260Z,50.50
2022-10-04T11:19:06.310Z,50.50
2022-10-04T11:21:27.352Z,50.40
2022-10-04T11:24:05.235Z,50.40
2022-10-04T11:26:21.969Z,50.30
2022-10-04T11:28:26.412Z,50.20
2022-10-04T11:31:02.492Z,50.20
2022-10-04T11:34:02.299Z,50.10
2022-10-04T11:36:03.955Z,50.10
2022-10-04T11:38:29.907Z,50.10
2022-10-04T11:40:34.308Z,50.10
2022-10-04T11:42:55.735Z,50.10
2022-10-04T11:45:15.252Z,50.10
2022-10-04T11:47:36.177Z,50.10
2022-10-04T11:50:08.888Z,50.10
2022-10-04T11:52:37.340Z,50.10
2022-10-04T11:55:10.266Z,50.10
2022-10-04T11:57:39.486Z,50.10
2022-10-04T11:59:54.746Z,50.10
2022-10-04T12:02:41.957Z,50.20
2022-10-04T12:05:12.021Z,50.20
2022-10-04T12:07:37.853Z,50.10
2022-10-04T12:10:05.097Z,50.00
2022-10-04T12:12:48.021Z,49.90
2022-10-04T12:15:23.735Z,49.90
2022-10-04T12:17:46.097Z,49.80
2022-10-04T12:20:15.760Z,49.70
2022-10-04T12:23:08.179Z,49.80
2022-10-04T12:25:33.080Z,49.80
2022-10-04T12:28:11.519Z,49.90
2022-10-04T12:30:16.408Z,50.00
2022-10-04T12:32:25.851Z,50.00
2022-10-04T12:34:37.012Z,50.10
2022-10-04T12:37:17.977Z,50.20
2022-10-04T12:39:37.687Z,50.20
2022-10-04T12:41:57.274Z,50.30
2022-10-04T12:44:04.984Z,50.40
2022-10-04T12:46:19.100Z,50.40
2022-10-04T12:48:42.598Z,50.40
2022-10-04T12:50:50.078Z,50.30
2022-10-04T12:53:16.104Z,50.20
2022-10-04T12:55:42.536Z,50.20
2022-10-04T12:58:00.322Z,50.20
2022-10-04T13:00:22.728Z,50.20
2022-10-04T13:02:30.180Z,50.20
2022-10-04T13:04:52.772Z,50.20
2022-10-04T13:07:18.473Z,50.40
2022-10-04T13:10:11.987Z,50.40
2022-10-04T13:12:11.391Z,50.50
2022-10-04T13:14:44.129Z,50.50
2022-10-04T13:19:37.822Z,50.60
2022-10-04T13:21:55.500Z,50.60
2022-10-04T13:24:08.047Z,50.70
2022-10-04T13:26:22.607Z,50.70
2022-10-04T13:28:57.113Z,50.60
2022-10-04T13:31:34.422Z,50.70
2022-10-04T13:33:44.876Z,50.80
2022-10-04T13:36:08.316Z,50.70
2022-10-04T13:38:31.839Z,50.90
2022-10-04T13:41:05.926Z,50.90
2022-10-04T13:43:28.848Z,51.00
2022-10-04T13:45:43.705Z,51.00
2022-10-04T13:48:22.865Z,51.10
2022-10-04T13:50:41.956Z,51.10
2022-10-04T13:53:27.608Z,51.10
2022-10-04T13:55:54.504Z,51.20
2022-10-04T13:58:05.369Z,51.20
2022-10-04T14:00:26.928Z,51.10
2022-10-04T14:02:55.583Z,51.20
2022-10-04T14:05:12.562Z,51.20
2022-10-04T14:07:35.644Z,51.20
2022-10-04T14:10:03.565Z,51.20
2022-10-04T14:12:52.758Z,51.20
2022-10-04T14:15:36.644Z,51.90
2022-10-04T14:18:04.086Z,51.20
2022-10-04T14:20:59.792Z,51.20
2022-10-04T14:23:52.091Z,51.20
2022-10-04T14:25:53.657Z,51.40
2022-10-04T14:28:10.328Z,51.30
2022-10-04T14:30:18.626Z,51.40
2022-10-04T14:32:33.858Z,51.40
2022-10-04T14:35:12.282Z,51.40
2022-10-04T14:37:38.036Z,51.40
2022-10-04T14:40:04.454Z,51.40
2022-10-04T14:42:35.275Z,51.50
2022-10-04T14:45:12.300Z,51.40
2022-10-04T14:47:51.572Z,51.50
2022-10-04T14:50:22.844Z,51.30
2022-10-04T14:52:24.437Z,51.30
2022-10-04T14:54:52.394Z,51.30
2022-10-04T14:57:03.426Z,51.30
2022-10-04T14:59:13.823Z,51.50
2022-10-04T15:01:22.833Z,51.50
2022-10-04T15:03:31.703Z,51.40
2022-10-04T15:05:41.855Z,51.30
2022-10-04T15:07:58.951Z,51.50
2022-10-04T15:10:18.939Z,51.50
2022-10-04T15:13:10.051Z,51.50
2022-10-04T15:15:14.298Z,52.30
2022-10-04T15:17:27.268Z,52.00
2022-10-04T15:19:53.748Z,52.30
2022-10-04T15:21:55.324Z,51.70
2022-10-04T15:24:16.146Z,51.90
2022-10-04T15:26:23.858Z,52.40
2022-10-04T15:28:49.194Z,52.10
2022-10-04T15:31:00.472Z,52.20
2022-10-04T15:33:56.087Z,52.30
2022-10-04T15:35:57.661Z,52.60
2022-10-04T15:38:40.580Z,52.10
2022-10-04T15:41:05.374Z,51.80
2022-10-04T15:43:09.948Z,51.90
2022-10-04T15:45:16.936Z,52.10
2022-10-04T15:47:38.076Z,52.20
2022-10-04T15:49:58.454Z,52.20
2022-10-04T15:52:38.465Z,52.40
2022-10-04T15:55:10.695Z,52.30
2022-10-04T15:57:32.178Z,52.40
2022-10-04T15:59:47.987Z,52.50
2022-10-04T16:02:25.672Z,52.50
2022-10-04T16:04:55.347Z,52.80
2022-10-04T16:07:07.870Z,51.20
2022-10-04T16:09:18.529Z,52.20
2022-10-04T16:11:47.923Z,53.30
2022-10-04T16:13:53.660Z,52.60
2022-10-04T16:16:26.173Z,52.70
2022-10-04T16:18:51.229Z,52.70
2022-10-04T16:21:23.108Z,52.80
2022-10-04T16:23:29.352Z,52.80
2022-10-04T16:25:38.254Z,53.00
2022-10-04T16:27:55.906Z,53.00
2022-10-04T16:30:26.570Z,53.30
2022-10-04T16:32:39.312Z,53.10
2022-10-04T16:34:45.341Z,53.00
2022-10-04T16:37:05.336Z,53.20
2022-10-04T16:39:29.186Z,53.30
2022-10-04T16:41:45.468Z,53.40
2022-10-04T16:43:55.538Z,53.20
2022-10-04T16:46:15.637Z,53.00
2022-10-04T16:48:41.539Z,53.20
2022-10-04T16:51:05.106Z,53.20
2022-10-04T16:53:32.566Z,53.20
2022-10-04T16:56:16.284Z,53.30
2022-10-04T16:58:26.898Z,53.30
2022-10-04T17:00:36.667Z,53.30
2022-10-04T17:03:16.086Z,53.30
2022-10-04T17:05:38.693Z,53.40
2022-10-04T17:08:05.817Z,53.60
2022-10-04T17:10:31.093Z,53.90
2022-10-04T17:12:56.197Z,53.70
2022-10-04T17:15:16.389Z,53.60
2022-10-04T17:17:25.781Z,53.70
2022-10-04T17:19:29.027Z,53.90
2022-10-04T17:21:53.044Z,53.90
2022-10-04T17:24:03.892Z,53.70
2022-10-04T17:26:08.595Z,52.20
2022-10-04T17:28:32.905Z,51.10
2022-10-04T17:31:13.837Z,52.20
2022-10-04T17:33:44.662Z,53.00
2022-10-04T17:36:07.406Z,53.30
2022-10-04T17:38:19.220Z,53.30
2022-10-04T17:40:37.702Z,54.00
2022-10-04T17:43:15.545Z,53.20
2022-10-04T17:45:52.735Z,53.30
2022-10-04T17:48:26.819Z,53.30
2022-10-04T17:51:02.366Z,53.40
2022-10-04T17:53:33.479Z,53.40
2022-10-04T17:55:53.077Z,53.40
2022-10-04T17:58:05.180Z,53.40
2022-10-04T18:00:13.550Z,53.40
2022-10-04T18:02:43.075Z,53.40
2022-10-04T18:04:53.074Z,53.40
2022-10-04T18:07:20.536Z,53.40
2022-10-04T18:09:29.811Z,53.40
2022-10-04T18:11:47.145Z,53.40
2022-10-04T18:14:03.834Z,53.30
2022-10-04T18:16:19.395Z,53.40
2022-10-04T18:18:26.750Z,53.40
2022-10-04T18:20:39.397Z,53.30
2022-10-04T18:22:48.979Z,53.40
2022-10-04T18:25:17.831Z,53.40
2022-10-04T18:27:23.483Z,53.30
2022-10-04T18:29:43.572Z,53.30
2022-10-04T18:31:45.252Z,53.40
2022-10-04T18:33:53.886Z,53.30
2022-10-04T18:36:06.195Z,53.40
2022-10-04T18:38:11.312Z,53.30
2022-10-04T18:40:34.515Z,53.00
2022-10-04T18:42:41.084Z,53.30
2022-10-04T18:44:49.177Z,53.30
2022-10-04T18:46:57.545Z,54.40
2022-10-04T18:49:13.189Z,55.10
2022-10-04T18:51:28.643Z,53.70
2022-10-04T18:53:44.287Z,54.60
2022-10-04T18:56:08.290Z,55.70
2022-10-04T18:58:59.760Z,55.40
2022-10-04T19:01:29.504Z,55.70
2022-10-04T19:03:41.644Z,56.50
2022-10-04T19:06:19.229Z,56.50
2022-10-04T19:09:04.023Z,56.60
2022-10-04T19:11:16.008Z,56.60
2022-10-04T19:13:26.311Z,57.60
2022-10-04T19:16:06.637Z,56.80
2022-10-04T19:18:40.147Z,56.60
2022-10-04T19:20:54.243Z,56.50
2022-10-04T19:23:08.269Z,56.50
2022-10-04T19:25:24.039Z,56.30
2022-10-04T19:27:48.785Z,56.40
2022-10-04T19:30:12.742Z,56.50
2022-10-04T19:32:28.600Z,56.00
2022-10-04T19:34:59.706Z,56.00
2022-10-04T19:37:09.463Z,56.00
2022-10-04T19:39:26.184Z,56.00
2022-10-04T19:41:42.897Z,55.90
2022-10-04T19:43:44.489Z,55.90
2022-10-04T19:46:09.190Z,55.90
2022-10-04T19:48:24.145Z,55.80
2022-10-04T19:50:35.208Z,55.90
2022-10-04T19:52:44.144Z,55.90
2022-10-04T19:54:47.597Z,55.80
2022-10-04T19:56:51.089Z,55.70
2022-10-04T19:59:02.223Z,55.70
2022-10-04T20:01:15.932Z,55.60
2022-10-04T20:03:17.695Z,55.70
2022-10-04T20:05:28.118Z,55.40
2022-10-04T20:07:30.252Z,55.40
2022-10-04T20:09:37.028Z,55.40
2022-10-04T20:11:38.743Z,55.20
2022-10-04T20:13:40.359Z,55.30
2022-10-04T20:15:46.360Z,55.10
2022-10-04T20:17:49.607Z,55.20
2022-10-04T20:19:51.231Z,55.30
2022-10-04T20:21:52.883Z,55.30
2022-10-04T20:23:56.597Z,55.40
2022-10-04T20:25:58.450Z,55.30
2022-10-04T20:28:02.627Z,55.20
2022-10-04T20:30:16.380Z,55.30
2022-10-04T20:32:27.116Z,55.30
2022-10-04T20:34:49.088Z,55.20
2022-10-04T20:36:51.936Z,55.20
2022-10-04T20:39:01.821Z,55.10
2022-10-04T20:41:03.576Z,55.10
2022-10-04T20:43:14.097Z,55.00
2022-10-04T20:45:15.713Z,55.10
2022-10-04T20:47:43.014Z,55.00
2022-10-04T20:49:45.473Z,55.00
2022-10-04T20:51:49.436Z,55.00
2022-10-04T20:53:51.530Z,54.90
2022-10-04T20:56:11.736Z,54.90
2022-10-04T20:58:35.158Z,54.90
2022-10-04T21:00:54.907Z,55.00
2022-10-04T21:03:18.422Z,55.00
2022-10-04T21:05:24.719Z,55.10
2022-10-04T21:07:27.108Z,55.00
2022-10-04T21:09:33.765Z,55.00
2022-10-04T21:11:51.269Z,55.10
2022-10-04T21:14:00.491Z,55.20
2022-10-04T21:16:02.119Z,55.20
2022-10-04T21:18:10.745Z,55.20
2022-10-04T21:20:45.002Z,55.20
2022-10-04T21:22:50.958Z,55.30
2022-10-04T21:24:57.224Z,55.30
2022-10-04T21:26:58.835Z,55.20
2022-10-04T21:29:01.511Z,55.30
2022-10-04T21:31:04.323Z,55.40
2022-10-04T21:33:05.910Z,55.40
2022-10-04T21:35:08.713Z,55.40
2022-10-04T21:37:10.292Z,55.40
2022-10-04T21:39:11.875Z,55.30
2022-10-04T21:41:13.600Z,55.40
2022-10-04T21:43:15.214Z,55.40
2022-10-04T21:45:16.816Z,55.30
2022-10-04T21:47:21.589Z,55.40
2022-10-04T21:49:23.175Z,55.30
2022-10-04T21:51:24.787Z,55.40
2022-10-04T21:53:26.396Z,55.40
2022-10-04T21:55:28.006Z,55.30
2022-10-04T21:57:34.714Z,55.30
2022-10-04T21:59:37.359Z,55.40
2022-10-04T22:01:38.975Z,55.40
2022-10-04T22:03:40.576Z,55.40
2022-10-04T22:05:42.191Z,55.40
2022-10-04T22:07:44.106Z,55.40
2022-10-04T22:09:45.705Z,55.40
2022-10-04T22:11:47.386Z,55.40
2022-10-04T22:13:49.045Z,55.50
2022-10-04T22:15:50.641Z,55.40
2022-10-04T22:17:52.265Z,55.40
2022-10-04T22:19:53.862Z,55.40
2022-10-04T22:21:55.783Z,55.40
2022-10-04T22:23:57.411Z,55.40
2022-10-04T22:25:59.254Z,55.40
2022-10-04T22:28:01.237Z,55.40
2022-10-04T22:30:03.848Z,55.40
2022-10-04T22:32:24.584Z,55.40
2022-10-04T22:34:26.209Z,55.40
2022-10-04T22:36:37.803Z,55.30
2022-10-04T22:38:40.933Z,55.30
2022-10-04T22:40:42.547Z,55.30
2022-10-04T22:42:44.644Z,55.30
2022-10-04T22:44:46.281Z,55.20
2022-10-04T22:46:54.115Z,55.30
2022-10-04T22:48:55.708Z,55.30
2022-10-04T22:50:57.909Z,55.30
2022-10-04T22:53:21.412Z,55.30
2022-10-04T22:55:23.398Z,55.20
2022-10-04T22:57:25.360Z,55.30
2022-10-04T22:59:37.589Z,55.30
2022-10-04T23:01:40.109Z,55.20
2022-10-04T23:03:46.600Z,55.30
2022-10-04T23:05:48.262Z,55.20
2022-10-04T23:07:49.873Z,55.30
2022-10-04T23:09:51.600Z,55.30
2022-10-04T23:11:53.187Z,55.30
2022-10-04T23:13:57.724Z,55.20
2022-10-04T23:16:02.414Z,55.20
2022-10-04T23:18:15.221Z,55.20
2022-10-04T23:20:19.371Z,55.20
2022-10-04T23:22:25.694Z,55.20
2022-10-04T23:24:30.418Z,55.20
2022-10-04T23:26:39.159Z,55.30
2022-10-04T23:28:40.879Z,55.30
2022-10-04T23:30:43.395Z,55.40
2022-10-04T23:32:48.031Z,55.30
2022-10-04T23:34:56.282Z,55.30
2022-10-04T23:36:58.478Z,55.30
2022-10-04T23:39:01.531Z,55.40
2022-10-04T23:41:05.587Z,55.40
2022-10-04T23:43:16.858Z,55.30
2022-10-04T23:45:23.404Z,55.30
2022-10-04T23:47:32.131Z,55.30
2022-10-04T23:49:34.246Z,55.30
2022-10-04T23:51:35.956Z,55.30
2022-10-04T23:53:37.757Z,55.20
2022-10-04T23:55:42.153Z,55.20
2022-10-04T23:57:43.784Z,55.20
2022-10-04T23:59:45.377Z,55.20
